This is the latest recevied weather packets stored in our database for station/object 9M4GHZ-13. If no packets are shown the sender has not sent any weather packets the latest 10 day(s).
| Time | Temp. | Humidity | Pressure | Rain* | Wind** | Luminosity | Snow |
|---|---|---|---|---|---|---|---|
| 1777526404 | 31.11° C | 71% | 1008.7 hPa | - | - | - | - |
| 1777525804 | 31.11° C | 74% | 1008.6 hPa | - | - | - | - |
| 1777525204 | 30.56° C | 75% | 1008.7 hPa | - | - | - | - |
| 1777524604 | 30.56° C | 73% | 1008.7 hPa | - | - | - | - |
| 1777524004 | 30.56° C | 73% | 1009 hPa | - | - | - | - |
| 1777523405 | 30° C | 76% | 1009 hPa | - | - | - | - |
| 1777522804 | 30.56° C | 76% | 1009.2 hPa | - | - | - | - |
| 1777522205 | 30.56° C | 75% | 1009.5 hPa | - | - | - | - |
| 1777521603 | 29.44° C | 79% | 1009.6 hPa | - | - | - | - |
| 1777521004 | 30° C | 78% | 1009.8 hPa | - | - | - | - |
| 1777520403 | 30° C | 79% | 1009.8 hPa | - | - | - | - |
| 1777519804 | 30° C | 79% | 1010.1 hPa | - | - | - | - |
| 1777519204 | 30° C | 79% | 1009.8 hPa | - | - | - | - |
| 1777518604 | 30° C | 79% | 1009.6 hPa | - | - | - | - |
| 1777518004 | 30° C | 78% | 1009.6 hPa | - | - | - | - |
| 1777517404 | 30.56° C | 78% | 1009.8 hPa | - | - | - | - |
| 1777516805 | 30.56° C | 76% | 1009.9 hPa | - | - | - | - |
| 1777516204 | 30° C | 77% | 1009.9 hPa | - | - | - | - |
| 1777515604 | 30° C | 80% | 1010.1 hPa | - | - | - | - |
| 1777515005 | 29.44° C | 81% | 1010.2 hPa | - | - | - | - |
| 1777514404 | 29.44° C | 80% | 1010.3 hPa | - | - | - | - |
| 1777513803 | 29.44° C | 80% | 1010.5 hPa | - | - | - | - |
| 1777513204 | 28.89° C | 82% | 1010.3 hPa | - | - | - | - |
| 1777512604 | 28.33° C | 80% | 1010.4 hPa | - | - | - | - |
| 1777512004 | 27.78° C | 84% | 1010.2 hPa | - | - | - | - |
* Rain since midnight (hover to see other rain measurements)
** Current wind speed in m/s (hover to see current wind gust speed)